sensor_id;sensor_type;location;lat;lon;timestamp;P1;durP1;ratioP1;P2;durP2;ratioP2
25111;SDS011;13092;51.996;4.458;2023-04-29T00:01:54;49.15;;;42.25;;
25111;SDS011;13092;51.996;4.458;2023-04-29T00:04:24;51.70;;;42.28;;
25111;SDS011;13092;51.996;4.458;2023-04-29T00:06:53;46.08;;;41.67;;
25111;SDS011;13092;51.996;4.458;2023-04-29T00:09:24;48.10;;;42.95;;
25111;SDS011;13092;51.996;4.458;2023-04-29T00:11:52;45.45;;;40.92;;
25111;SDS011;13092;51.996;4.458;2023-04-29T00:14:23;47.75;;;42.70;;
25111;SDS011;13092;51.996;4.458;2023-04-29T00:16:53;47.30;;;42.35;;
25111;SDS011;13092;51.996;4.458;2023-04-29T00:19:22;46.80;;;42.05;;
25111;SDS011;13092;51.996;4.458;2023-04-29T00:21:51;47.35;;;42.70;;
25111;SDS011;13092;51.996;4.458;2023-04-29T00:24:20;47.65;;;43.25;;
25111;SDS011;13092;51.996;4.458;2023-04-29T00:26:48;47.13;;;42.53;;
25111;SDS011;13092;51.996;4.458;2023-04-29T00:29:17;48.75;;;43.50;;
25111;SDS011;13092;51.996;4.458;2023-04-29T00:31:47;47.65;;;43.05;;
25111;SDS011;13092;51.996;4.458;2023-04-29T00:34:15;47.85;;;43.03;;
25111;SDS011;13092;51.996;4.458;2023-04-29T00:36:44;49.03;;;44.03;;
25111;SDS011;13092;51.996;4.458;2023-04-29T00:39:12;48.67;;;43.92;;
25111;SDS011;13092;51.996;4.458;2023-04-29T00:41:40;48.28;;;43.35;;
25111;SDS011;13092;51.996;4.458;2023-04-29T00:44:09;47.97;;;43.28;;
25111;SDS011;13092;51.996;4.458;2023-04-29T00:46:40;48.03;;;43.25;;
25111;SDS011;13092;51.996;4.458;2023-04-29T00:49:11;49.10;;;43.95;;
25111;SDS011;13092;51.996;4.458;2023-04-29T00:51:41;48.58;;;43.75;;
25111;SDS011;13092;51.996;4.458;2023-04-29T00:54:12;50.70;;;45.45;;
25111;SDS011;13092;51.996;4.458;2023-04-29T00:56:42;47.67;;;43.08;;
25111;SDS011;13092;51.996;4.458;2023-04-29T00:59:12;48.45;;;43.70;;
25111;SDS011;13092;51.996;4.458;2023-04-29T01:01:42;47.00;;;42.38;;
25111;SDS011;13092;51.996;4.458;2023-04-29T01:04:12;48.05;;;43.40;;
25111;SDS011;13092;51.996;4.458;2023-04-29T01:06:47;47.33;;;42.83;;
25111;SDS011;13092;51.996;4.458;2023-04-29T01:09:28;47.83;;;43.33;;
25111;SDS011;13092;51.996;4.458;2023-04-29T01:12:08;48.10;;;42.20;;
25111;SDS011;13092;51.996;4.458;2023-04-29T01:14:43;46.65;;;41.97;;
25111;SDS011;13092;51.996;4.458;2023-04-29T01:17:17;46.55;;;42.08;;
25111;SDS011;13092;51.996;4.458;2023-04-29T01:19:51;47.78;;;43.00;;
25111;SDS011;13092;51.996;4.458;2023-04-29T01:22:22;48.67;;;43.75;;
25111;SDS011;13092;51.996;4.458;2023-04-29T01:24:52;49.22;;;43.85;;
25111;SDS011;13092;51.996;4.458;2023-04-29T01:27:25;48.55;;;43.78;;
25111;SDS011;13092;51.996;4.458;2023-04-29T01:29:59;48.03;;;43.42;;
25111;SDS011;13092;51.996;4.458;2023-04-29T01:32:36;47.53;;;42.80;;
25111;SDS011;13092;51.996;4.458;2023-04-29T01:35:16;46.17;;;41.83;;
25111;SDS011;13092;51.996;4.458;2023-04-29T01:37:59;47.38;;;42.75;;
25111;SDS011;13092;51.996;4.458;2023-04-29T01:40:42;47.22;;;42.63;;
25111;SDS011;13092;51.996;4.458;2023-04-29T01:43:14;46.55;;;41.95;;
25111;SDS011;13092;51.996;4.458;2023-04-29T01:45:43;46.72;;;42.35;;
25111;SDS011;13092;51.996;4.458;2023-04-29T01:48:16;47.03;;;42.42;;
25111;SDS011;13092;51.996;4.458;2023-04-29T01:50:45;46.42;;;42.10;;
25111;SDS011;13092;51.996;4.458;2023-04-29T01:53:16;46.95;;;42.45;;
25111;SDS011;13092;51.996;4.458;2023-04-29T01:55:46;45.90;;;41.50;;
25111;SDS011;13092;51.996;4.458;2023-04-29T01:58:14;46.38;;;41.83;;
25111;SDS011;13092;51.996;4.458;2023-04-29T02:00:42;44.65;;;40.35;;
25111;SDS011;13092;51.996;4.458;2023-04-29T02:03:11;46.47;;;42.10;;
25111;SDS011;13092;51.996;4.458;2023-04-29T02:05:39;47.47;;;42.65;;
25111;SDS011;13092;51.996;4.458;2023-04-29T02:08:10;47.38;;;42.70;;
25111;SDS011;13092;51.996;4.458;2023-04-29T02:10:40;45.63;;;41.33;;
25111;SDS011;13092;51.996;4.458;2023-04-29T02:13:22;47.05;;;42.28;;
25111;SDS011;13092;51.996;4.458;2023-04-29T02:15:54;47.17;;;42.67;;
25111;SDS011;13092;51.996;4.458;2023-04-29T02:18:25;46.50;;;42.13;;
25111;SDS011;13092;51.996;4.458;2023-04-29T02:20:58;47.08;;;42.42;;
25111;SDS011;13092;51.996;4.458;2023-04-29T02:23:28;47.38;;;43.08;;
25111;SDS011;13092;51.996;4.458;2023-04-29T02:25:56;46.67;;;42.20;;
25111;SDS011;13092;51.996;4.458;2023-04-29T02:28:31;45.58;;;41.58;;
25111;SDS011;13092;51.996;4.458;2023-04-29T02:31:00;46.00;;;41.80;;
25111;SDS011;13092;51.996;4.458;2023-04-29T02:33:29;46.83;;;42.45;;
25111;SDS011;13092;51.996;4.458;2023-04-29T02:35:57;47.25;;;43.08;;
25111;SDS011;13092;51.996;4.458;2023-04-29T02:38:26;47.17;;;42.88;;
25111;SDS011;13092;51.996;4.458;2023-04-29T02:40:54;46.53;;;42.33;;
25111;SDS011;13092;51.996;4.458;2023-04-29T02:43:23;47.30;;;42.70;;
25111;SDS011;13092;51.996;4.458;2023-04-29T02:45:56;47.47;;;42.85;;
25111;SDS011;13092;51.996;4.458;2023-04-29T02:48:25;47.25;;;42.80;;
25111;SDS011;13092;51.996;4.458;2023-04-29T02:50:54;46.15;;;41.95;;
25111;SDS011;13092;51.996;4.458;2023-04-29T02:53:24;46.08;;;41.67;;
25111;SDS011;13092;51.996;4.458;2023-04-29T02:55:53;45.53;;;41.40;;
25111;SDS011;13092;51.996;4.458;2023-04-29T02:58:22;46.55;;;42.25;;
25111;SDS011;13092;51.996;4.458;2023-04-29T03:00:52;46.40;;;41.90;;
25111;SDS011;13092;51.996;4.458;2023-04-29T03:03:20;45.65;;;41.38;;
25111;SDS011;13092;51.996;4.458;2023-04-29T03:05:49;45.75;;;41.50;;
25111;SDS011;13092;51.996;4.458;2023-04-29T03:08:21;46.05;;;41.83;;
25111;SDS011;13092;51.996;4.458;2023-04-29T03:10:49;44.83;;;40.67;;
25111;SDS011;13092;51.996;4.458;2023-04-29T03:13:18;44.50;;;40.58;;
25111;SDS011;13092;51.996;4.458;2023-04-29T03:15:46;45.20;;;40.90;;
25111;SDS011;13092;51.996;4.458;2023-04-29T03:18:16;44.83;;;40.72;;
25111;SDS011;13092;51.996;4.458;2023-04-29T03:20:44;45.30;;;40.92;;
25111;SDS011;13092;51.996;4.458;2023-04-29T03:23:12;44.78;;;40.63;;
25111;SDS011;13092;51.996;4.458;2023-04-29T03:25:41;46.53;;;41.88;;
25111;SDS011;13092;51.996;4.458;2023-04-29T03:28:09;45.47;;;41.13;;
25111;SDS011;13092;51.996;4.458;2023-04-29T03:30:37;43.97;;;39.88;;
25111;SDS011;13092;51.996;4.458;2023-04-29T03:33:05;45.10;;;40.95;;
25111;SDS011;13092;51.996;4.458;2023-04-29T03:35:35;45.92;;;41.42;;
25111;SDS011;13092;51.996;4.458;2023-04-29T03:38:03;43.83;;;39.88;;
25111;SDS011;13092;51.996;4.458;2023-04-29T03:40:32;44.80;;;40.65;;
25111;SDS011;13092;51.996;4.458;2023-04-29T03:43:00;43.65;;;39.60;;
25111;SDS011;13092;51.996;4.458;2023-04-29T03:45:28;44.47;;;40.50;;
25111;SDS011;13092;51.996;4.458;2023-04-29T03:47:57;44.65;;;40.65;;
25111;SDS011;13092;51.996;4.458;2023-04-29T03:50:25;43.22;;;39.15;;
25111;SDS011;13092;51.996;4.458;2023-04-29T03:52:58;43.65;;;39.70;;
25111;SDS011;13092;51.996;4.458;2023-04-29T03:55:29;45.70;;;41.38;;
25111;SDS011;13092;51.996;4.458;2023-04-29T03:57:58;45.92;;;41.55;;
25111;SDS011;13092;51.996;4.458;2023-04-29T04:00:26;44.97;;;40.75;;
25111;SDS011;13092;51.996;4.458;2023-04-29T04:02:56;44.95;;;40.75;;
25111;SDS011;13092;51.996;4.458;2023-04-29T04:05:28;46.30;;;41.72;;
25111;SDS011;13092;51.996;4.458;2023-04-29T04:07:56;46.50;;;41.67;;
25111;SDS011;13092;51.996;4.458;2023-04-29T04:10:27;46.00;;;41.75;;
25111;SDS011;13092;51.996;4.458;2023-04-29T04:12:55;46.55;;;42.00;;
25111;SDS011;13092;51.996;4.458;2023-04-29T04:15:23;45.40;;;41.28;;
25111;SDS011;13092;51.996;4.458;2023-04-29T04:17:52;45.58;;;41.33;;
25111;SDS011;13092;51.996;4.458;2023-04-29T04:20:20;46.20;;;42.00;;
25111;SDS011;13092;51.996;4.458;2023-04-29T04:22:48;46.97;;;42.35;;
25111;SDS011;13092;51.996;4.458;2023-04-29T04:25:18;46.42;;;42.22;;
25111;SDS011;13092;51.996;4.458;2023-04-29T04:27:49;46.80;;;42.08;;
25111;SDS011;13092;51.996;4.458;2023-04-29T04:30:17;46.10;;;41.85;;
25111;SDS011;13092;51.996;4.458;2023-04-29T04:32:48;47.35;;;42.65;;
25111;SDS011;13092;51.996;4.458;2023-04-29T04:35:18;46.55;;;41.92;;
25111;SDS011;13092;51.996;4.458;2023-04-29T04:37:47;46.25;;;42.03;;
25111;SDS011;13092;51.996;4.458;2023-04-29T04:40:18;47.60;;;42.80;;
25111;SDS011;13092;51.996;4.458;2023-04-29T04:42:51;46.78;;;42.17;;
25111;SDS011;13092;51.996;4.458;2023-04-29T04:45:20;47.38;;;42.47;;
25111;SDS011;13092;51.996;4.458;2023-04-29T04:47:49;46.33;;;41.90;;
25111;SDS011;13092;51.996;4.458;2023-04-29T04:50:17;45.28;;;40.50;;
25111;SDS011;13092;51.996;4.458;2023-04-29T04:52:46;45.70;;;41.00;;
25111;SDS011;13092;51.996;4.458;2023-04-29T04:55:19;45.45;;;41.25;;
25111;SDS011;13092;51.996;4.458;2023-04-29T04:57:48;46.58;;;41.97;;
25111;SDS011;13092;51.996;4.458;2023-04-29T05:00:17;45.42;;;40.90;;
25111;SDS011;13092;51.996;4.458;2023-04-29T05:02:47;46.95;;;42.25;;
25111;SDS011;13092;51.996;4.458;2023-04-29T05:05:15;46.90;;;42.03;;
25111;SDS011;13092;51.996;4.458;2023-04-29T05:07:44;47.28;;;42.45;;
25111;SDS011;13092;51.996;4.458;2023-04-29T05:10:14;47.15;;;42.22;;
25111;SDS011;13092;51.996;4.458;2023-04-29T05:12:44;47.67;;;42.85;;
25111;SDS011;13092;51.996;4.458;2023-04-29T05:15:13;48.53;;;43.30;;
25111;SDS011;13092;51.996;4.458;2023-04-29T05:17:42;48.65;;;43.78;;
25111;SDS011;13092;51.996;4.458;2023-04-29T05:20:11;51.33;;;43.67;;
25111;SDS011;13092;51.996;4.458;2023-04-29T05:22:39;47.47;;;42.45;;
25111;SDS011;13092;51.996;4.458;2023-04-29T05:25:11;47.75;;;42.75;;
25111;SDS011;13092;51.996;4.458;2023-04-29T05:27:39;47.80;;;42.88;;
25111;SDS011;13092;51.996;4.458;2023-04-29T05:30:11;49.08;;;44.05;;
25111;SDS011;13092;51.996;4.458;2023-04-29T05:32:43;47.47;;;42.65;;
25111;SDS011;13092;51.996;4.458;2023-04-29T05:35:12;48.55;;;43.45;;
25111;SDS011;13092;51.996;4.458;2023-04-29T05:37:40;48.85;;;43.72;;
25111;SDS011;13092;51.996;4.458;2023-04-29T05:40:09;53.15;;;45.63;;
25111;SDS011;13092;51.996;4.458;2023-04-29T05:42:38;48.00;;;42.83;;
25111;SDS011;13092;51.996;4.458;2023-04-29T05:45:11;49.38;;;44.17;;
25111;SDS011;13092;51.996;4.458;2023-04-29T05:47:39;49.05;;;43.85;;
25111;SDS011;13092;51.996;4.458;2023-04-29T05:50:08;48.97;;;43.83;;
25111;SDS011;13092;51.996;4.458;2023-04-29T05:52:42;48.50;;;43.58;;
25111;SDS011;13092;51.996;4.458;2023-04-29T05:55:11;49.30;;;44.05;;
25111;SDS011;13092;51.996;4.458;2023-04-29T05:57:39;48.72;;;43.00;;
25111;SDS011;13092;51.996;4.458;2023-04-29T06:00:11;48.80;;;43.10;;
25111;SDS011;13092;51.996;4.458;2023-04-29T06:02:40;47.47;;;42.55;;
25111;SDS011;13092;51.996;4.458;2023-04-29T06:05:23;50.85;;;43.80;;
25111;SDS011;13092;51.996;4.458;2023-04-29T06:07:52;47.83;;;42.90;;
25111;SDS011;13092;51.996;4.458;2023-04-29T06:10:21;47.95;;;42.95;;
25111;SDS011;13092;51.996;4.458;2023-04-29T06:12:50;47.92;;;43.10;;
25111;SDS011;13092;51.996;4.458;2023-04-29T06:15:19;46.25;;;41.65;;
25111;SDS011;13092;51.996;4.458;2023-04-29T06:17:48;47.38;;;42.53;;
25111;SDS011;13092;51.996;4.458;2023-04-29T06:20:16;46.72;;;42.10;;
25111;SDS011;13092;51.996;4.458;2023-04-29T06:22:44;45.80;;;41.05;;
25111;SDS011;13092;51.996;4.458;2023-04-29T06:25:13;45.38;;;40.88;;
25111;SDS011;13092;51.996;4.458;2023-04-29T06:27:41;43.55;;;39.35;;
25111;SDS011;13092;51.996;4.458;2023-04-29T06:30:10;43.40;;;39.53;;
25111;SDS011;13092;51.996;4.458;2023-04-29T06:32:40;50.03;;;39.97;;
25111;SDS011;13092;51.996;4.458;2023-04-29T06:35:09;43.97;;;40.17;;
25111;SDS011;13092;51.996;4.458;2023-04-29T06:37:37;42.72;;;39.03;;
25111;SDS011;13092;51.996;4.458;2023-04-29T06:40:06;42.65;;;38.78;;
25111;SDS011;13092;51.996;4.458;2023-04-29T06:42:35;42.85;;;39.10;;
25111;SDS011;13092;51.996;4.458;2023-04-29T06:45:04;43.33;;;39.08;;
25111;SDS011;13092;51.996;4.458;2023-04-29T06:47:33;43.97;;;40.17;;
25111;SDS011;13092;51.996;4.458;2023-04-29T06:50:04;44.03;;;40.15;;
25111;SDS011;13092;51.996;4.458;2023-04-29T06:52:35;44.05;;;40.25;;
25111;SDS011;13092;51.996;4.458;2023-04-29T06:55:03;44.65;;;40.97;;
25111;SDS011;13092;51.996;4.458;2023-04-29T06:57:35;45.42;;;41.42;;
25111;SDS011;13092;51.996;4.458;2023-04-29T07:00:04;46.10;;;41.83;;
25111;SDS011;13092;51.996;4.458;2023-04-29T07:02:33;45.20;;;41.00;;
25111;SDS011;13092;51.996;4.458;2023-04-29T07:05:06;46.08;;;41.70;;
25111;SDS011;13092;51.996;4.458;2023-04-29T07:07:35;45.55;;;41.50;;
25111;SDS011;13092;51.996;4.458;2023-04-29T07:10:04;45.42;;;41.38;;
25111;SDS011;13092;51.996;4.458;2023-04-29T07:12:32;45.88;;;41.60;;
25111;SDS011;13092;51.996;4.458;2023-04-29T07:15:01;46.03;;;41.90;;
25111;SDS011;13092;51.996;4.458;2023-04-29T07:17:29;45.42;;;41.33;;
25111;SDS011;13092;51.996;4.458;2023-04-29T07:19:57;44.17;;;40.33;;
25111;SDS011;13092;51.996;4.458;2023-04-29T07:22:27;44.60;;;40.65;;
25111;SDS011;13092;51.996;4.458;2023-04-29T07:24:55;43.70;;;40.03;;
25111;SDS011;13092;51.996;4.458;2023-04-29T07:27:24;43.78;;;40.28;;
25111;SDS011;13092;51.996;4.458;2023-04-29T07:29:53;44.20;;;40.75;;
25111;SDS011;13092;51.996;4.458;2023-04-29T07:32:22;43.65;;;40.22;;
25111;SDS011;13092;51.996;4.458;2023-04-29T07:34:50;44.75;;;41.05;;
25111;SDS011;13092;51.996;4.458;2023-04-29T07:37:19;42.33;;;38.83;;
25111;SDS011;13092;51.996;4.458;2023-04-29T07:39:49;44.03;;;40.20;;
25111;SDS011;13092;51.996;4.458;2023-04-29T07:42:18;42.25;;;38.78;;
25111;SDS011;13092;51.996;4.458;2023-04-29T07:44:52;43.88;;;40.13;;
25111;SDS011;13092;51.996;4.458;2023-04-29T07:47:21;41.55;;;38.10;;
25111;SDS011;13092;51.996;4.458;2023-04-29T07:49:49;42.63;;;38.88;;
25111;SDS011;13092;51.996;4.458;2023-04-29T07:52:18;43.17;;;39.28;;
25111;SDS011;13092;51.996;4.458;2023-04-29T07:54:46;43.45;;;39.72;;
25111;SDS011;13092;51.996;4.458;2023-04-29T07:57:21;45.25;;;41.08;;
25111;SDS011;13092;51.996;4.458;2023-04-29T07:59:53;45.70;;;41.83;;
25111;SDS011;13092;51.996;4.458;2023-04-29T08:02:24;44.80;;;40.90;;
25111;SDS011;13092;51.996;4.458;2023-04-29T08:04:58;45.13;;;41.05;;
25111;SDS011;13092;51.996;4.458;2023-04-29T08:07:29;47.00;;;42.40;;
25111;SDS011;13092;51.996;4.458;2023-04-29T08:09:58;45.63;;;41.33;;
25111;SDS011;13092;51.996;4.458;2023-04-29T08:12:28;46.83;;;42.78;;
25111;SDS011;13092;51.996;4.458;2023-04-29T08:14:57;44.70;;;40.67;;
25111;SDS011;13092;51.996;4.458;2023-04-29T08:17:25;44.25;;;40.38;;
25111;SDS011;13092;51.996;4.458;2023-04-29T08:19:54;46.03;;;42.15;;
25111;SDS011;13092;51.996;4.458;2023-04-29T08:22:25;46.20;;;42.45;;
25111;SDS011;13092;51.996;4.458;2023-04-29T08:24:55;45.63;;;41.72;;
25111;SDS011;13092;51.996;4.458;2023-04-29T08:27:25;44.88;;;41.25;;
25111;SDS011;13092;51.996;4.458;2023-04-29T08:29:54;46.78;;;42.55;;
25111;SDS011;13092;51.996;4.458;2023-04-29T08:32:22;45.97;;;42.17;;
25111;SDS011;13092;51.996;4.458;2023-04-29T08:34:51;46.25;;;42.35;;
25111;SDS011;13092;51.996;4.458;2023-04-29T08:37:20;46.53;;;42.72;;
25111;SDS011;13092;51.996;4.458;2023-04-29T08:39:48;46.08;;;42.10;;
25111;SDS011;13092;51.996;4.458;2023-04-29T08:42:19;47.45;;;43.30;;
25111;SDS011;13092;51.996;4.458;2023-04-29T08:45:02;46.22;;;42.40;;
25111;SDS011;13092;51.996;4.458;2023-04-29T08:47:33;44.40;;;40.80;;
25111;SDS011;13092;51.996;4.458;2023-04-29T08:50:05;45.95;;;42.25;;
25111;SDS011;13092;51.996;4.458;2023-04-29T08:52:36;48.55;;;44.25;;
25111;SDS011;13092;51.996;4.458;2023-04-29T08:55:05;46.75;;;42.95;;
25111;SDS011;13092;51.996;4.458;2023-04-29T08:57:38;48.50;;;44.60;;
25111;SDS011;13092;51.996;4.458;2023-04-29T09:00:09;48.58;;;44.53;;
25111;SDS011;13092;51.996;4.458;2023-04-29T09:02:40;48.30;;;44.35;;
25111;SDS011;13092;51.996;4.458;2023-04-29T09:05:14;50.63;;;46.50;;
25111;SDS011;13092;51.996;4.458;2023-04-29T09:07:43;48.58;;;44.60;;
25111;SDS011;13092;51.996;4.458;2023-04-29T09:10:13;50.80;;;46.50;;
25111;SDS011;13092;51.996;4.458;2023-04-29T09:12:45;49.13;;;45.22;;
25111;SDS011;13092;51.996;4.458;2023-04-29T09:15:14;49.13;;;45.15;;
25111;SDS011;13092;51.996;4.458;2023-04-29T09:17:43;49.08;;;45.28;;
25111;SDS011;13092;51.996;4.458;2023-04-29T09:20:25;50.90;;;47.10;;
25111;SDS011;13092;51.996;4.458;2023-04-29T09:23:00;48.08;;;44.38;;
25111;SDS011;13092;51.996;4.458;2023-04-29T09:25:29;50.42;;;46.72;;
25111;SDS011;13092;51.996;4.458;2023-04-29T09:28:14;52.70;;;48.72;;
25111;SDS011;13092;51.996;4.458;2023-04-29T09:30:46;51.55;;;47.75;;
25111;SDS011;13092;51.996;4.458;2023-04-29T09:33:25;52.83;;;48.92;;
25111;SDS011;13092;51.996;4.458;2023-04-29T09:35:56;53.75;;;49.72;;
25111;SDS011;13092;51.996;4.458;2023-04-29T09:38:26;54.47;;;50.47;;
25111;SDS011;13092;51.996;4.458;2023-04-29T09:40:54;54.72;;;50.65;;
25111;SDS011;13092;51.996;4.458;2023-04-29T09:43:28;55.10;;;50.92;;
25111;SDS011;13092;51.996;4.458;2023-04-29T09:45:57;57.83;;;53.42;;
25111;SDS011;13092;51.996;4.458;2023-04-29T09:48:29;58.08;;;53.75;;
25111;SDS011;13092;51.996;4.458;2023-04-29T09:51:00;55.78;;;51.63;;
25111;SDS011;13092;51.996;4.458;2023-04-29T09:53:34;53.42;;;49.45;;
25111;SDS011;13092;51.996;4.458;2023-04-29T09:56:04;53.85;;;50.25;;
25111;SDS011;13092;51.996;4.458;2023-04-29T09:58:34;55.00;;;50.78;;
25111;SDS011;13092;51.996;4.458;2023-04-29T10:01:09;56.13;;;52.33;;
25111;SDS011;13092;51.996;4.458;2023-04-29T10:03:39;53.92;;;50.33;;
25111;SDS011;13092;51.996;4.458;2023-04-29T10:06:09;50.83;;;47.45;;
25111;SDS011;13092;51.996;4.458;2023-04-29T10:08:38;45.95;;;42.70;;
25111;SDS011;13092;51.996;4.458;2023-04-29T10:11:08;38.13;;;35.40;;
25111;SDS011;13092;51.996;4.458;2023-04-29T10:13:40;32.17;;;29.60;;
25111;SDS011;13092;51.996;4.458;2023-04-29T10:16:14;34.38;;;31.92;;
25111;SDS011;13092;51.996;4.458;2023-04-29T10:18:54;20.00;;;18.10;;
25111;SDS011;13092;51.996;4.458;2023-04-29T10:21:26;15.63;;;10.85;;
25111;SDS011;13092;51.996;4.458;2023-04-29T10:23:57;14.43;;;10.52;;
25111;SDS011;13092;51.996;4.458;2023-04-29T10:26:29;10.63;;;6.57;;
25111;SDS011;13092;51.996;4.458;2023-04-29T10:28:59;11.10;;;7.20;;
25111;SDS011;13092;51.996;4.458;2023-04-29T10:31:28;10.00;;;6.63;;
25111;SDS011;13092;51.996;4.458;2023-04-29T10:34:04;11.27;;;6.53;;
25111;SDS011;13092;51.996;4.458;2023-04-29T10:36:33;11.38;;;6.03;;
25111;SDS011;13092;51.996;4.458;2023-04-29T10:39:03;10.43;;;5.10;;
25111;SDS011;13092;51.996;4.458;2023-04-29T10:41:36;9.52;;;5.18;;
25111;SDS011;13092;51.996;4.458;2023-04-29T10:44:14;10.45;;;5.50;;
25111;SDS011;13092;51.996;4.458;2023-04-29T10:46:48;12.70;;;5.32;;
25111;SDS011;13092;51.996;4.458;2023-04-29T10:49:16;7.88;;;4.55;;
25111;SDS011;13092;51.996;4.458;2023-04-29T10:51:44;8.65;;;5.35;;
25111;SDS011;13092;51.996;4.458;2023-04-29T10:54:13;9.57;;;5.85;;
25111;SDS011;13092;51.996;4.458;2023-04-29T10:56:53;9.68;;;5.78;;
25111;SDS011;13092;51.996;4.458;2023-04-29T11:02:14;10.75;;;6.05;;
25111;SDS011;13092;51.996;4.458;2023-04-29T11:07:35;11.27;;;6.97;;
25111;SDS011;13092;51.996;4.458;2023-04-29T11:10:04;10.85;;;6.13;;
25111;SDS011;13092;51.996;4.458;2023-04-29T11:12:33;9.18;;;5.43;;
25111;SDS011;13092;51.996;4.458;2023-04-29T11:15:04;12.15;;;5.97;;
25111;SDS011;13092;51.996;4.458;2023-04-29T11:17:36;10.82;;;5.75;;
25111;SDS011;13092;51.996;4.458;2023-04-29T11:20:08;9.60;;;5.78;;
25111;SDS011;13092;51.996;4.458;2023-04-29T11:22:39;8.73;;;5.95;;
25111;SDS011;13092;51.996;4.458;2023-04-29T11:25:18;11.07;;;5.95;;
25111;SDS011;13092;51.996;4.458;2023-04-29T11:27:47;9.00;;;5.82;;
25111;SDS011;13092;51.996;4.458;2023-04-29T11:30:19;11.73;;;5.68;;
25111;SDS011;13092;51.996;4.458;2023-04-29T11:32:48;8.98;;;5.07;;
25111;SDS011;13092;51.996;4.458;2023-04-29T11:35:17;9.48;;;5.40;;
25111;SDS011;13092;51.996;4.458;2023-04-29T11:37:45;11.80;;;5.43;;
25111;SDS011;13092;51.996;4.458;2023-04-29T11:40:14;10.45;;;5.65;;
25111;SDS011;13092;51.996;4.458;2023-04-29T11:42:43;10.32;;;5.28;;
25111;SDS011;13092;51.996;4.458;2023-04-29T11:45:13;14.55;;;5.85;;
25111;SDS011;13092;51.996;4.458;2023-04-29T11:47:46;9.73;;;5.03;;
25111;SDS011;13092;51.996;4.458;2023-04-29T11:50:15;10.45;;;5.55;;
25111;SDS011;13092;51.996;4.458;2023-04-29T11:52:46;11.13;;;6.00;;
25111;SDS011;13092;51.996;4.458;2023-04-29T11:55:15;10.63;;;5.93;;
25111;SDS011;13092;51.996;4.458;2023-04-29T11:57:43;11.20;;;6.20;;
25111;SDS011;13092;51.996;4.458;2023-04-29T12:00:12;14.48;;;6.22;;
25111;SDS011;13092;51.996;4.458;2023-04-29T12:02:43;9.65;;;5.97;;
25111;SDS011;13092;51.996;4.458;2023-04-29T12:05:14;10.98;;;5.57;;
25111;SDS011;13092;51.996;4.458;2023-04-29T12:07:45;9.55;;;5.38;;
25111;SDS011;13092;51.996;4.458;2023-04-29T12:10:13;12.10;;;5.70;;
25111;SDS011;13092;51.996;4.458;2023-04-29T12:12:41;12.90;;;6.47;;
25111;SDS011;13092;51.996;4.458;2023-04-29T12:15:11;10.73;;;5.95;;
25111;SDS011;13092;51.996;4.458;2023-04-29T12:17:39;11.20;;;6.65;;
25111;SDS011;13092;51.996;4.458;2023-04-29T12:20:09;11.88;;;6.40;;
25111;SDS011;13092;51.996;4.458;2023-04-29T12:22:40;9.82;;;5.63;;
25111;SDS011;13092;51.996;4.458;2023-04-29T12:25:09;10.02;;;5.97;;
25111;SDS011;13092;51.996;4.458;2023-04-29T12:27:38;11.10;;;5.88;;
25111;SDS011;13092;51.996;4.458;2023-04-29T12:30:09;12.93;;;5.88;;
25111;SDS011;13092;51.996;4.458;2023-04-29T12:32:38;11.70;;;6.18;;
25111;SDS011;13092;51.996;4.458;2023-04-29T12:35:13;11.48;;;5.90;;
25111;SDS011;13092;51.996;4.458;2023-04-29T12:37:44;13.75;;;7.28;;
25111;SDS011;13092;51.996;4.458;2023-04-29T12:40:15;12.30;;;6.60;;
25111;SDS011;13092;51.996;4.458;2023-04-29T12:42:46;12.70;;;6.72;;
25111;SDS011;13092;51.996;4.458;2023-04-29T12:45:27;13.25;;;6.38;;
25111;SDS011;13092;51.996;4.458;2023-04-29T12:47:57;10.38;;;6.03;;
25111;SDS011;13092;51.996;4.458;2023-04-29T12:50:27;11.57;;;6.38;;
25111;SDS011;13092;51.996;4.458;2023-04-29T12:52:59;14.60;;;7.00;;
25111;SDS011;13092;51.996;4.458;2023-04-29T12:55:30;13.68;;;6.03;;
25111;SDS011;13092;51.996;4.458;2023-04-29T12:58:00;10.10;;;6.88;;
25111;SDS011;13092;51.996;4.458;2023-04-29T13:00:28;11.57;;;6.47;;
25111;SDS011;13092;51.996;4.458;2023-04-29T13:02:57;14.93;;;6.15;;
25111;SDS011;13092;51.996;4.458;2023-04-29T13:05:25;11.73;;;6.88;;
25111;SDS011;13092;51.996;4.458;2023-04-29T13:07:54;10.68;;;6.22;;
25111;SDS011;13092;51.996;4.458;2023-04-29T13:10:23;9.95;;;5.78;;
25111;SDS011;13092;51.996;4.458;2023-04-29T13:12:53;11.20;;;5.93;;
25111;SDS011;13092;51.996;4.458;2023-04-29T13:15:22;12.10;;;6.57;;
25111;SDS011;13092;51.996;4.458;2023-04-29T13:17:50;14.13;;;6.32;;
25111;SDS011;13092;51.996;4.458;2023-04-29T13:20:18;12.20;;;6.40;;
25111;SDS011;13092;51.996;4.458;2023-04-29T13:22:47;12.43;;;6.43;;
25111;SDS011;13092;51.996;4.458;2023-04-29T13:25:16;12.45;;;6.32;;
25111;SDS011;13092;51.996;4.458;2023-04-29T13:27:46;10.40;;;5.88;;
25111;SDS011;13092;51.996;4.458;2023-04-29T13:30:15;13.70;;;5.50;;
25111;SDS011;13092;51.996;4.458;2023-04-29T13:32:43;11.38;;;6.10;;
25111;SDS011;13092;51.996;4.458;2023-04-29T13:35:20;12.43;;;6.00;;
25111;SDS011;13092;51.996;4.458;2023-04-29T13:37:48;10.52;;;5.05;;
25111;SDS011;13092;51.996;4.458;2023-04-29T13:40:17;11.35;;;5.47;;
25111;SDS011;13092;51.996;4.458;2023-04-29T13:42:49;9.82;;;5.60;;
25111;SDS011;13092;51.996;4.458;2023-04-29T13:45:31;9.73;;;5.40;;
25111;SDS011;13092;51.996;4.458;2023-04-29T13:48:05;10.02;;;5.90;;
25111;SDS011;13092;51.996;4.458;2023-04-29T13:50:51;8.75;;;5.43;;
25111;SDS011;13092;51.996;4.458;2023-04-29T13:53:22;11.68;;;6.55;;
25111;SDS011;13092;51.996;4.458;2023-04-29T13:56:10;15.10;;;6.13;;
25111;SDS011;13092;51.996;4.458;2023-04-29T13:58:42;10.13;;;5.93;;
25111;SDS011;13092;51.996;4.458;2023-04-29T14:01:14;10.05;;;5.82;;
25111;SDS011;13092;51.996;4.458;2023-04-29T14:04:02;8.15;;;4.68;;
25111;SDS011;13092;51.996;4.458;2023-04-29T14:06:30;10.80;;;5.30;;
25111;SDS011;13092;51.996;4.458;2023-04-29T14:08:59;12.32;;;5.47;;
25111;SDS011;13092;51.996;4.458;2023-04-29T14:11:29;11.50;;;4.80;;
25111;SDS011;13092;51.996;4.458;2023-04-29T14:14:03;9.70;;;4.90;;
25111;SDS011;13092;51.996;4.458;2023-04-29T14:16:31;9.40;;;5.45;;
25111;SDS011;13092;51.996;4.458;2023-04-29T14:19:00;9.88;;;4.70;;
25111;SDS011;13092;51.996;4.458;2023-04-29T14:21:29;7.45;;;4.57;;
25111;SDS011;13092;51.996;4.458;2023-04-29T14:23:59;8.32;;;4.35;;
25111;SDS011;13092;51.996;4.458;2023-04-29T14:26:27;8.35;;;4.45;;
25111;SDS011;13092;51.996;4.458;2023-04-29T14:28:59;7.68;;;4.15;;
25111;SDS011;13092;51.996;4.458;2023-04-29T14:31:29;10.55;;;5.15;;
25111;SDS011;13092;51.996;4.458;2023-04-29T14:34:00;9.50;;;5.05;;
25111;SDS011;13092;51.996;4.458;2023-04-29T14:36:29;9.52;;;5.13;;
25111;SDS011;13092;51.996;4.458;2023-04-29T14:38:59;9.95;;;5.05;;
25111;SDS011;13092;51.996;4.458;2023-04-29T14:41:28;11.13;;;5.50;;
25111;SDS011;13092;51.996;4.458;2023-04-29T14:43:56;8.32;;;5.35;;
25111;SDS011;13092;51.996;4.458;2023-04-29T14:46:25;9.63;;;5.30;;
25111;SDS011;13092;51.996;4.458;2023-04-29T14:48:55;8.68;;;4.57;;
25111;SDS011;13092;51.996;4.458;2023-04-29T14:51:24;13.55;;;5.30;;